Latest Coastal Weather Observations for Noarlunga

IDS60701

Issued at 9:31 am CDT Thursday 18 December 2014 (issued every 10 minutes, with the page automatically refreshed every 10 minutes)

About coastal observations | Map of coastal stations | Coastal observations for SA | Marine services | Other Formats
Station Details ID: 023885 Name: NOARLUNGA Lat: -35.16 Lon: 138.51 Height: 55.0 m
Data from the previous 72 hours. | See also: Recent months at Noarlunga
Date/Time
CDT
Temp

°C
Wind Pressure Rain
since 9am
mm
Weather Cloud Vis
km
Sea
Height
m
Swell
Dir
 
Speed
knots
Gust
knots
hPa Trend Height
m
Period
s
Dir
18/09:30am 18.5 WNW 11 17 - - 0.0 - - - - - - -
18/09:00am 18.2 WNW 13 20 - - 0.0 - - - - - - -
18/08:30am 18.3 WNW 11 16 - - 0.0 - - - - - - -
18/08:00am 17.9 WNW 12 18 - - 0.0 - - - - - - -
18/07:30am 17.0 NW 12 20 - - 0.0 - - - - - - -
18/07:00am 17.0 WNW 12 19 - - 0.0 - - - - - - -
18/06:30am 16.4 WNW 10 15 - - 0.0 - - - - - - -
18/06:00am 16.1 WNW 8 13 - - 0.0 - - - - - - -
18/05:30am 16.2 WNW 7 11 - - 0.0 - - - - - - -
18/05:00am 15.6 W 5 9 - - 0.0 - - - - - - -
18/04:30am 14.5 W 3 5 - - 0.0 - - - - - - -
18/04:00am 13.9 CALM 0 1 - - 0.0 - - - - - - -
18/03:30am 13.2 CALM 0 0 - - 0.0 - - - - - - -
18/03:00am 12.8 CALM 0 0 - - 0.0 - - - - - - -
18/02:30am 12.9 CALM 0 1 - - 0.0 - - - - - - -
18/02:00am 13.2 CALM 0 0 - - 0.0 - - - - - - -
18/01:30am 13.5 E 2 3 - - 0.0 - - - - - - -
18/01:00am 13.9 ESE 3 4 - - 0.0 - - - - - - -
18/12:30am 14.8 E 4 5 - - 0.0 - - - - - - -
18/12:00am 14.8 E 5 8 - - 0.0 - - - - - - -
 
Date/Time
CDT
Temp

°C
Wind Pressure Rain
since 9am
mm
Weather Cloud Vis
km
Sea
Height
m
Swell
Dir
 
Speed
knots
Gust
knots
hPa Trend Height
m
Period
s
Dir
17/11:30pm 15.1 E 5 6 - - 0.0 - - - - - - -
17/11:00pm 15.2 E 5 8 - - 0.0 - - - - - - -
17/10:30pm 15.6 CALM 0 0 - - 0.0 - - - - - - -
17/10:00pm 15.9 SE 1 1 - - 0.0 - - - - - - -
17/09:30pm 16.6 SSW 3 3 - - 0.0 - - - - - - -
17/09:00pm 17.0 SW 5 7 - - 0.0 - - - - - - -
17/08:30pm 17.5 SW 5 8 - - 0.0 - - - - - - -
17/08:00pm 18.9 SSW 6 9 - - 0.0 - - - - - - -
17/07:30pm 20.1 SW 6 9 - - 0.0 - - - - - - -
17/07:00pm 20.6 SW 4 7 - - 0.0 - - - - - - -
17/06:30pm 20.9 SSW 4 6 - - 0.0 - - - - - - -
17/06:00pm 20.2 SW 6 11 - - 0.0 - - - - - - -
17/05:30pm 20.9 SW 6 10 - - 0.0 - - - - - - -
17/05:00pm 20.6 WSW 6 11 - - 0.0 - - - - - - -
17/04:30pm 21.9 WSW 5 11 - - 0.0 - - - - - - -
17/04:00pm 21.1 W 7 11 - - 0.0 - - - - - - -
17/03:30pm 21.2 SW 4 8 - - 0.0 - - - - - - -
17/03:00pm 21.1 SSW 5 9 - - 0.0 - - - - - - -
17/02:30pm 20.9 WNW 5 13 - - 0.0 - - - - - - -
17/02:00pm 19.6 NW 4 9 - - 0.0 - - - - - - -
17/01:30pm 19.7 W 5 9 - - 0.0 - - - - - - -
17/01:00pm 19.5 NW 5 10 - - 0.0 - - - - - - -
17/12:30pm 19.3 W 6 9 - - 0.0 - - - - - - -
17/12:00pm 18.0 W 6 10 - - 0.0 - - - - - - -
17/11:30am 18.1 W 7 11 - - 0.0 - - - - - - -
17/11:00am 18.6 WSW 5 10 - - 0.0 - - - - - - -
17/10:30am 17.8 WNW 6 9 - - 0.0 - - - - - - -
17/10:00am 17.6 W 6 10 - - 0.0 - - - - - - -
17/09:30am 17.4 WNW 4 7 - - 0.0 - - - - - - -
17/09:00am 16.7 SSW 3 6 - - 0.0 - - - - - - -
17/08:30am 16.9 S 3 5 - - 0.0 - - - - - - -
17/08:00am 16.3 SE 3 5 - - 0.0 - - - - - - -
17/07:30am 15.5 SE 3 4 - - 0.0 - - - - - - -
17/07:00am 13.9 ESE 3 4 - - 0.0 - - - - - - -
17/06:30am 12.2 ESE 3 3 - - 0.0 - - - - - - -
17/06:00am 11.0 ESE 2 3 - - 0.0 - - - - - - -
17/05:30am 11.5 E 2 3 - - 0.0 - - - - - - -
17/05:00am 11.5 ESE 3 4 - - 0.0 - - - - - - -
17/04:30am 12.0 ESE 3 4 - - 0.0 - - - - - - -
17/04:00am 12.4 ESE 2 3 - - 0.0 - - - - - - -
17/03:30am 12.3 SE 2 3 - - 0.0 - - - - - - -
17/03:00am 12.0 ESE 3 5 - - 0.0 - - - - - - -
17/02:30am 12.0 ESE 2 4 - - 0.0 - - - - - - -
17/02:00am 12.3 SE 3 3 - - 0.0 - - - - - - -
17/01:30am 12.4 SE 4 6 - - 0.0 - - - - - - -
17/01:00am 12.9 SSE 5 7 - - 0.0 - - - - - - -
17/12:30am 13.2 SSE 4 6 - - 0.0 - - - - - - -
17/12:00am 13.9 S 4 6 - - 0.0 - - - - - - -
 
Date/Time
CDT
Temp

°C
Wind Pressure Rain
since 9am
mm
Weather Cloud Vis
km
Sea
Height
m
Swell
Dir
 
Speed
knots
Gust
knots
hPa Trend Height
m
Period
s
Dir
16/11:30pm 14.3 S 6 9 - - 0.0 - - - - - - -
16/11:00pm 14.6 S 7 11 - - 0.0 - - - - - - -
16/10:30pm 15.1 S 6 11 - - 0.0 - - - - - - -
16/10:00pm 15.6 S 6 11 - - 0.0 - - - - - - -
16/09:30pm 16.2 S 8 12 - - 0.0 - - - - - - -
16/09:00pm 16.8 SSW 7 13 - - 0.0 - - - - - - -
16/08:30pm 17.5 SW 10 16 - - 0.0 - - - - - - -
16/08:00pm 17.8 SW 11 20 - - 0.0 - - - - - - -
16/07:30pm 17.8 WSW 11 20 - - 0.0 - - - - - - -
16/07:00pm 18.6 WSW 10 16 - - 0.0 - - - - - - -
16/06:30pm 19.1 WSW 13 20 - - 0.0 - - - - - - -
16/06:00pm 19.4 WSW 16 23 - - 0.0 - - - - - - -
16/05:30pm 20.4 WSW 15 21 - - 0.0 - - - - - - -
16/05:02pm 20.0 W 16 29 - - 0.0 - - - - - - -
16/05:00pm 20.4 W 16 25 - - 0.0 - - - - - - -
16/04:30pm 20.3 W 15 24 - - 0.0 - - - - - - -
16/04:06pm 20.5 W 19 29 - - 0.0 - - - - - - -
16/04:00pm 20.0 W 20 29 - - 0.0 - - - - - - -
16/03:30pm 20.2 W 19 30 - - 0.0 - - - - - - -
16/03:28pm 20.4 W 19 30 - - 0.0 - - - - - - -
16/03:00pm 21.0 W 17 25 - - 0.0 - - - - - - -
16/02:30pm 21.3 W 17 27 - - 0.0 - - - - - - -
16/02:00pm 21.0 W 16 26 - - 0.0 - - - - - - -
16/01:30pm 21.5 W 17 28 - - 0.0 - - - - - - -
16/01:05pm 20.8 W 18 28 - - 0.0 - - - - - - -
16/01:00pm 20.2 W 19 27 - - 0.0 - - - - - - -
16/12:45pm 19.1 W 16 27 - - 0.0 - - - - - - -
16/12:30pm 18.4 W 12 18 - - 0.0 - - - - - - -
16/12:14pm 18.5 WNW 12 28 - - 0.0 - - - - - - -
16/12:00pm 20.6 NW 11 15 - - 0.0 - - - - - - -
16/11:30am 20.5 WNW 9 14 - - 0.0 - - - - - - -
16/11:00am 20.1 NW 9 15 - - 0.0 - - - - - - -
16/10:30am 20.2 NW 10 15 - - 0.0 - - - - - - -
16/10:00am 19.2 NW 10 13 - - 0.0 - - - - - - -
16/09:30am 19.2 WNW 9 15 - - 0.0 - - - - - - -
16/09:00am 19.2 WNW 11 19 - - 0.0 - - - - - - -
16/08:30am 19.1 NW 11 17 - - 0.0 - - - - - - -
16/08:00am 18.7 WNW 10 15 - - 0.0 - - - - - - -
16/07:30am 17.3 NNW 9 13 - - 0.0 - - - - - - -
16/07:00am 16.8 NNW 5 8 - - 0.0 - - - - - - -
16/06:30am 15.9 NNW 4 7 - - 0.0 - - - - - - -
16/06:00am 14.9 NNE 3 4 - - 0.0 - - - - - - -
16/05:30am 15.1 NNE 4 7 - - 0.0 - - - - - - -
16/05:00am 14.8 NNE 7 10 - - 0.0 - - - - - - -
16/04:30am 14.4 NE 9 14 - - 0.0 - - - - - - -
16/04:00am 14.2 NNE 6 7 - - 0.0 - - - - - - -
16/03:30am 13.7 NNE 4 5 - - 0.0 - - - - - - -
16/03:00am 13.3 NE 2 3 - - 0.0 - - - - - - -
16/02:30am 13.3 E 3 4 - - 0.0 - - - - - - -
16/02:00am 13.7 ESE 4 5 - - 0.0 - - - - - - -
16/01:30am 14.0 ESE 6 8 - - 0.0 - - - - - - -
16/01:00am 14.2 ESE 4 6 - - 0.0 - - - - - - -
16/12:30am 14.6 E 6 9 - - 0.0 - - - - - - -
16/12:00am 14.7 E 6 10 - - 0.0 - - - - - - -
 
Date/Time
CDT
Temp

°C
Wind Pressure Rain
since 9am
mm
Weather Cloud Vis
km
Sea
Height
m
Swell
Dir
 
Speed
knots
Gust
knots
hPa Trend Height
m
Period
s
Dir
15/11:30pm 15.0 ENE 6 9 - - 0.0 - - - - - - -
15/11:00pm 15.4 E 7 10 - - 0.0 - - - - - - -
15/10:30pm 15.9 E 6 8 - - 0.0 - - - - - - -
15/10:00pm 16.4 ESE 7 11 - - 0.0 - - - - - - -
15/09:30pm 17.2 ESE 6 10 - - 0.0 - - - - - - -
15/09:00pm 18.0 SE 8 11 - - 0.0 - - - - - - -
15/08:30pm 19.1 SE 8 11 - - 0.0 - - - - - - -
15/08:00pm 21.2 SSE 8 11 - - 0.0 - - - - - - -
15/07:30pm 23.1 SSE 7 10 - - 0.0 - - - - - - -
15/07:00pm 24.4 SSW 7 14 - - 0.0 - - - - - - -
15/06:30pm 23.5 WSW 10 15 - - 0.0 - - - - - - -
15/06:00pm 24.7 WSW 9 14 - - 0.0 - - - - - - -
15/05:30pm 25.9 WSW 8 12 - - 0.0 - - - - - - -
15/05:00pm 26.3 SW 9 13 - - 0.0 - - - - - - -
15/04:30pm 26.3 WSW 10 15 - - 0.0 - - - - - - -
15/04:00pm 25.8 WSW 9 13 - - 0.0 - - - - - - -
15/03:30pm 25.9 WSW 9 15 - - 0.0 - - - - - - -
15/03:00pm 25.8 WSW 9 14 - - 0.0 - - - - - - -
15/02:30pm 25.8 WSW 11 15 - - 0.0 - - - - - - -
15/02:00pm 26.5 WSW 8 13 - - 0.0 - - - - - - -
15/01:30pm 27.2 S 6 11 - - 0.0 - - - - - - -
15/01:00pm 26.3 SSE 4 9 - - 0.0 - - - - - - -
15/12:30pm 26.4 SE 6 11 - - 0.0 - - - - - - -
15/12:00pm 25.5 SSE 8 13 - - 0.0 - - - - - - -
15/11:30am 24.6 SSE 8 14 - - 0.0 - - - - - - -
15/11:00am 23.5 SE 8 11 - - 0.0 - - - - - - -
15/10:30am 21.7 E 9 14 - - 0.0 - - - - - - -
15/10:00am 21.3 ESE 10 14 - - 0.0 - - - - - - -

Other Formats:

Comma delimited format used in spreadsheet applications
http://www.bom.gov.au/fwo/IDS60701/IDS60701.94808.axf

JavaScript Object Notation format (JSON) in row-major order
http://www.bom.gov.au/fwo/IDS60701/IDS60701.94808.json